Time;durP1;ratioP1;P1;durP2;ratioP2;P2;SDS_P1;SDS_P2;PMS_P1;PMS_P2;Temp;Humidity;BMP_temperature;BMP_pressure;BME280_temperature;BME280_humidity;BME280_pressure;Samples;Min_cycle;Max_cycle;Signal;HPM_P1;HPM_P2
2022/12/16 00:00:23;;;;;;;10.40;9.80;;;;;;;2.85;100.00;100749.16;5027861;28;20580;-66
2022/12/16 00:02:49;;;;;;;10.38;9.88;;;;;;;2.66;100.00;100758.44;5026429;28;20021;-66
2022/12/16 00:05:15;;;;;;;9.90;9.40;;;;;;;3.03;100.00;100760.81;5012409;28;20034;-66
2022/12/16 00:07:41;;;;;;;9.98;9.48;;;;;;;3.03;100.00;100766.91;5014855;28;20029;-67
2022/12/16 00:10:07;;;;;;;11.30;10.60;;;;;;;2.97;100.00;100769.16;5014218;28;20040;-67
2022/12/16 00:12:33;;;;;;;9.65;9.15;;;;;;;2.73;100.00;100771.91;5013107;28;20026;-67
2022/12/16 00:14:58;;;;;;;9.30;8.90;;;;;;;3.04;100.00;100763.31;5012787;28;20379;-67
2022/12/16 00:17:24;;;;;;;9.57;9.07;;;;;;;3.25;100.00;100775.69;5014376;28;20374;-67
2022/12/16 00:19:49;;;;;;;10.27;9.68;;;;;;;3.08;100.00;100757.81;5013120;28;20040;-67
2022/12/16 00:22:15;;;;;;;10.77;10.18;;;;;;;3.18;100.00;100764.03;5014315;28;20508;-67
2022/12/16 00:24:40;;;;;;;10.02;9.50;;;;;;;3.00;100.00;100751.41;5014416;28;20490;-68
2022/12/16 00:27:06;;;;;;;10.15;9.65;;;;;;;3.00;100.00;100747.94;5014445;28;20030;-66
2022/12/16 00:29:31;;;;;;;10.10;9.50;;;;;;;3.23;100.00;100741.75;5010699;28;20063;-66
2022/12/16 00:31:57;;;;;;;10.27;9.70;;;;;;;3.36;100.00;100757.31;5013800;28;20381;-66
2022/12/16 00:34:23;;;;;;;9.77;9.27;;;;;;;2.63;100.00;100749.97;5014058;28;20121;-67
2022/12/16 00:36:48;;;;;;;10.52;9.93;;;;;;;3.16;100.00;100756.28;5012453;28;20125;-66
2022/12/16 00:39:14;;;;;;;10.43;9.82;;;;;;;2.99;100.00;100760.22;5014072;28;20025;-66
2022/12/16 00:41:39;;;;;;;10.70;10.10;;;;;;;2.93;100.00;100773.78;5013567;28;20033;-67
2022/12/16 00:44:05;;;;;;;10.13;9.63;;;;;;;3.19;100.00;100763.06;5013602;28;20481;-67
2022/12/16 00:46:30;;;;;;;10.00;9.50;;;;;;;3.07;100.00;100758.78;5012523;28;20030;-67
2022/12/16 00:48:56;;;;;;;10.35;9.75;;;;;;;3.22;100.00;100761.00;5012497;28;20030;-67
2022/12/16 00:51:21;;;;;;;9.40;9.00;;;;;;;3.12;100.00;100764.50;5013642;28;20033;-67
2022/12/16 00:53:48;;;;;;;10.50;9.90;;;;;;;3.37;100.00;100771.25;5014257;28;20456;-67
2022/12/16 00:56:13;;;;;;;9.43;8.95;;;;;;;3.84;100.00;100773.50;5013822;28;20088;-67
2022/12/16 00:58:39;;;;;;;9.57;9.07;;;;;;;3.79;100.00;100762.53;5013421;28;20366;-67
2022/12/16 01:01:06;;;;;;;9.82;9.32;;;;;;;3.62;100.00;100757.00;5013250;28;20079;-66
2022/12/16 01:03:33;;;;;;;9.20;8.80;;;;;;;3.41;100.00;100755.16;5012405;28;20021;-67
2022/12/16 01:05:59;;;;;;;9.55;9.05;;;;;;;3.08;100.00;100757.81;5013296;28;20040;-66
2022/12/16 01:08:24;;;;;;;9.60;9.10;;;;;;;3.23;100.00;100752.22;5013417;28;20041;-66
2022/12/16 01:10:56;;;;;;;9.63;9.13;;;;;;;3.07;100.00;100745.66;5013359;28;20033;-67
2022/12/16 01:13:23;;;;;;;10.43;9.90;;;;;;;3.37;100.00;100753.72;5010638;28;20184;-66
2022/12/16 01:15:49;;;;;;;9.65;9.15;;;;;;;3.67;100.00;100760.91;5011039;28;20500;-67
2022/12/16 01:18:16;;;;;;;9.43;8.93;;;;;;;3.44;100.00;100760.13;5013212;28;20026;-67
2022/12/16 01:20:42;;;;;;;9.00;8.60;;;;;;;3.54;100.00;100753.22;5012487;28;20042;-67
2022/12/16 01:23:08;;;;;;;9.30;8.90;;;;;;;3.65;100.00;100735.75;5013710;28;20021;-66
2022/12/16 01:25:33;;;;;;;9.15;8.75;;;;;;;3.86;100.00;100736.63;5015114;28;20796;-66
2022/12/16 01:27:59;;;;;;;9.63;9.13;;;;;;;3.86;100.00;100755.84;5016186;28;20451;-66
2022/12/16 01:30:24;;;;;;;9.48;8.98;;;;;;;3.92;100.00;100744.00;5016563;28;20152;-67
2022/12/16 01:32:50;;;;;;;9.65;9.15;;;;;;;4.31;100.00;100744.25;5016415;28;20109;-67
2022/12/16 01:35:16;;;;;;;9.23;8.82;;;;;;;4.39;100.00;100747.06;5012855;28;20025;-65
2022/12/16 01:37:41;;;;;;;8.73;8.32;;;;;;;4.55;100.00;100747.44;5011371;28;20477;-66
2022/12/16 01:40:15;;;;;;;8.95;8.55;;;;;;;4.61;100.00;100743.47;5012995;28;20041;-66
2022/12/16 01:42:43;;;;;;;8.98;8.57;;;;;;;4.75;100.00;100748.38;5009707;28;20029;-66
2022/12/16 01:45:23;;;;;;;9.55;9.05;;;;;;;4.88;100.00;100754.25;5013404;28;20554;-66
2022/12/16 01:47:50;;;;;;;9.02;8.63;;;;;;;4.79;100.00;100751.59;5012895;28;20083;-66
2022/12/16 01:50:17;;;;;;;8.90;8.50;;;;;;;5.02;100.00;100747.78;5012653;28;20444;-66
2022/12/16 01:52:49;;;;;;;9.02;8.63;;;;;;;4.98;100.00;100754.28;5012079;28;20034;-66
2022/12/16 01:55:20;;;;;;;9.15;8.73;;;;;;;5.08;100.00;100752.53;5011731;28;20401;-66
2022/12/16 01:57:50;;;;;;;9.23;8.82;;;;;;;5.13;100.00;100758.19;5011318;28;20061;-67
2022/12/16 02:00:16;;;;;;;8.90;8.50;;;;;;;5.36;100.00;100760.59;5011893;28;20029;-66
2022/12/16 02:02:44;;;;;;;9.88;9.38;;;;;;;5.42;100.00;100752.19;5011617;28;20021;-66
2022/12/16 02:05:19;;;;;;;9.23;8.82;;;;;;;5.46;100.00;100774.63;5012236;28;20508;-65
2022/12/16 02:07:53;;;;;;;9.18;8.77;;;;;;;5.44;100.00;100768.69;5011536;28;20385;-66
2022/12/16 02:10:20;;;;;;;;;;;;;;;5.48;100.00;100760.34;5007967;28;20233;-67
2022/12/16 02:12:58;;;;;;;8.80;8.40;;;;;;;5.41;100.00;100753.97;5010033;28;20016;-65
2022/12/16 02:15:41;;;;;;;9.13;8.73;;;;;;;5.43;100.00;100748.56;5011868;28;20028;-65
2022/12/16 02:18:25;;;;;;;9.55;9.05;;;;;;;5.35;100.00;100745.78;5012139;28;20033;-66
2022/12/16 02:21:02;;;;;;;9.80;9.30;;;;;;;5.45;100.00;100728.25;5011139;28;20033;-67
2022/12/16 02:23:37;;;;;;;9.93;9.43;;;;;;;5.51;100.00;100736.44;5006360;28;20139;-66
2022/12/16 02:26:05;;;;;;;;;;;;;;;5.55;100.00;100747.50;5011129;28;20025;-67
2022/12/16 02:29:06;;;;;;;9.65;9.15;;;;;;;5.50;100.00;100744.44;5026180;28;19969;-67
2022/12/16 02:31:42;;;;;;;9.30;8.90;;;;;;;5.42;100.00;100741.66;5010960;28;20022;-67
2022/12/16 02:34:23;;;;;;;9.70;9.20;;;;;;;5.51;100.00;100741.69;5012873;28;20067;-66
2022/12/16 02:37:16;;;;;;;9.32;8.93;;;;;;;5.60;100.00;100740.03;5010703;28;20021;-66
2022/12/16 02:39:50;;;;;;;9.20;8.80;;;;;;;5.54;100.00;100741.41;5008275;28;20073;-66
2022/12/16 02:42:39;;;;;;;;;;;;;;;5.64;100.00;100745.84;5012356;28;20027;-66
2022/12/16 02:45:25;;;;;;;9.70;9.20;;;;;;;5.62;100.00;100730.19;5044823;28;19952;-66
2022/12/16 02:47:51;;;;;;;9.10;8.70;;;;;;;5.71;100.00;100739.88;5010838;28;20040;-68
2022/12/16 02:50:29;;;;;;;8.93;8.52;;;;;;;5.69;100.00;100748.91;5011995;28;20026;-67
2022/12/16 02:52:57;;;;;;;9.30;8.88;;;;;;;5.70;100.00;100758.44;5009356;28;20042;-67
2022/12/16 02:55:46;;;;;;;9.07;8.68;;;;;;;5.74;100.00;100746.69;5011777;28;20111;-67
2022/12/16 02:58:17;;;;;;;9.05;8.65;;;;;;;5.68;100.00;100748.06;5011819;28;20477;-67
2022/12/16 03:01:20;;;;;;;9.10;8.70;;;;;;;5.62;100.00;100745.97;5011905;28;20026;-67
2022/12/16 03:04:00;;;;;;;8.80;8.40;;;;;;;5.60;100.00;100733.94;5007736;28;20030;-66
2022/12/16 03:06:29;;;;;;;9.15;8.75;;;;;;;5.70;100.00;100734.75;5002736;28;20045;-66
2022/12/16 03:08:58;;;;;;;9.15;8.75;;;;;;;5.71;100.00;100724.09;5010344;28;20025;-66
2022/12/16 03:11:27;;;;;;;9.90;9.40;;;;;;;5.82;100.00;100725.75;5011280;28;20022;-66
2022/12/16 03:13:56;;;;;;;9.35;8.93;;;;;;;5.79;100.00;100723.38;5011645;28;20076;-65
2022/12/16 03:16:26;;;;;;;9.27;8.88;;;;;;;5.79;100.00;100728.66;5010498;28;20026;-67
2022/12/16 03:18:55;;;;;;;9.00;8.60;;;;;;;5.79;100.00;100720.75;5011734;28;20037;-67
2022/12/16 03:21:25;;;;;;;9.93;9.43;;;;;;;5.73;100.00;100713.44;5005698;28;20034;-67
2022/12/16 03:24:04;;;;;;;9.48;9.07;;;;;;;5.79;100.00;100718.13;5011707;28;20042;-67
2022/12/16 03:26:34;;;;;;;9.63;9.15;;;;;;;5.74;100.00;100718.56;5011371;28;20087;-67
2022/12/16 03:29:06;;;;;;;9.73;9.23;;;;;;;5.78;100.00;100716.47;5009646;28;20053;-67
2022/12/16 03:31:44;;;;;;;9.30;8.90;;;;;;;5.86;100.00;100711.34;5010110;28;20436;-66
2022/12/16 03:34:19;;;;;;;9.35;8.95;;;;;;;5.87;100.00;100701.63;5009174;28;20030;-66
2022/12/16 03:36:52;;;;;;;9.57;9.15;;;;;;;5.90;100.00;100691.66;5011112;28;20022;-66
2022/12/16 03:39:22;;;;;;;9.55;9.10;;;;;;;5.86;100.00;100702.59;5013238;28;20026;-66
2022/12/16 03:41:50;;;;;;;9.35;8.95;;;;;;;5.88;100.00;100684.91;5015181;28;20030;-67
2022/12/16 03:44:17;;;;;;;9.88;9.38;;;;;;;5.85;100.00;100677.25;5014693;28;20049;-67
2022/12/16 03:46:42;;;;;;;9.65;9.20;;;;;;;5.95;100.00;100686.00;5013456;28;20021;-66
2022/12/16 03:49:08;;;;;;;9.15;8.75;;;;;;;5.87;100.00;100697.19;5014494;28;20026;-67
2022/12/16 03:51:33;;;;;;;9.70;9.20;;;;;;;5.86;100.00;100705.25;5015118;28;20046;-67
2022/12/16 03:53:59;;;;;;;9.85;9.35;;;;;;;5.95;100.00;100709.69;5013468;28;20030;-66
2022/12/16 03:56:24;;;;;;;9.63;9.13;;;;;;;5.91;100.00;100708.31;5014771;28;20271;-67
2022/12/16 03:58:50;;;;;;;9.27;8.88;;;;;;;5.93;100.00;100703.75;5015182;28;20021;-67
2022/12/16 04:01:15;;;;;;;9.73;9.23;;;;;;;5.99;100.00;100708.44;5013081;28;20114;-66
2022/12/16 04:03:41;;;;;;;9.68;9.18;;;;;;;6.06;100.00;100694.59;5011877;28;20109;-67
2022/12/16 04:06:06;;;;;;;10.18;9.68;;;;;;;5.94;100.00;100689.59;5009392;28;20033;-67
2022/12/16 04:08:32;;;;;;;9.18;8.77;;;;;;;5.83;100.00;100698.47;5011361;28;20034;-66
2022/12/16 04:25:14;;;;;;;10.25;9.75;;;;;;;5.86;100.00;100687.66;5013802;28;20558;-67
2022/12/16 04:27:45;;;;;;;9.75;9.25;;;;;;;5.85;100.00;100683.34;5013158;28;20444;-67
2022/12/16 04:30:18;;;;;;;9.65;9.15;;;;;;;5.96;100.00;100695.59;5014122;28;20084;-66
